Terminal Aerodrome Forecast
Issued by NWS Sterling, VA

Current Version | Previous Version | Text Only | Print | Product List | Glossary Off
Versions: 1 2 3 4 5 6 7 8 9 10 11 12 13 14 15 16 17 18 19 20 21 22 23 24 25 26

379
FTUS41 KLWX 161720
TAFIAD
TAF
KIAD 161720Z 1618/1724 VRB03KT P6SM BKN070
     FM170300 VRB03KT 5SM -SN OVC040
     FM170600 34005KT 2SM -SN SCT008 BKN015
     FM171200 33012KT P6SM OVC035
     FM171700 32014G21KT P6SM SCT150=

USA.gov is the U.S. government's official web portal to all federal, state and local government web resources and services.